createdAt,value
2024-03-01T00:01:36.032Z,25.15
2024-03-01T00:04:05.081Z,25.14
2024-03-01T00:06:34.478Z,25.14
2024-03-01T00:09:03.478Z,25.13
2024-03-01T00:11:33.977Z,25.13
2024-03-01T00:14:02.826Z,25.13
2024-03-01T00:16:32.286Z,25.15
2024-03-01T00:19:01.292Z,25.15
2024-03-01T00:21:30.365Z,25.17
2024-03-01T00:23:59.261Z,25.19
2024-03-01T00:26:28.566Z,25.20
2024-03-01T00:28:57.562Z,25.21
2024-03-01T00:31:26.521Z,25.21
2024-03-01T00:33:56.888Z,25.21
2024-03-01T00:36:25.931Z,25.22
2024-03-01T00:38:54.815Z,25.23
2024-03-01T00:41:23.927Z,25.27
2024-03-01T00:43:52.843Z,25.27
2024-03-01T00:46:23.261Z,25.32
2024-03-01T00:48:56.410Z,25.34
2024-03-01T00:51:25.451Z,25.34
2024-03-01T00:53:54.484Z,25.35
2024-03-01T00:56:23.458Z,25.37
2024-03-01T00:58:52.609Z,25.37
2024-03-01T01:01:21.911Z,25.40
2024-03-01T01:03:51.069Z,25.42
2024-03-01T01:06:20.142Z,25.43
2024-03-01T01:08:49.211Z,25.48
2024-03-01T01:11:18.290Z,25.51
2024-03-01T01:13:47.177Z,25.55
2024-03-01T01:16:16.236Z,25.60
2024-03-01T01:18:45.218Z,25.64
2024-03-01T01:21:14.141Z,25.67
2024-03-01T01:23:43.085Z,25.69
2024-03-01T01:26:12.036Z,25.71
2024-03-01T01:28:41.417Z,25.74
2024-03-01T01:31:10.458Z,25.75
2024-03-01T01:33:39.421Z,25.81
2024-03-01T01:36:08.373Z,25.80
2024-03-01T01:38:37.412Z,25.84
2024-03-01T01:41:06.566Z,25.87
2024-03-01T01:43:37.707Z,25.90
2024-03-01T01:46:07.181Z,25.94
2024-03-01T01:48:36.326Z,25.97
2024-03-01T01:51:05.912Z,26.00
2024-03-01T01:53:36.717Z,26.06
2024-03-01T01:56:07.248Z,26.06
2024-03-01T01:58:37.150Z,26.11
2024-03-01T02:01:10.196Z,26.14
2024-03-01T02:03:41.670Z,26.17
2024-03-01T02:06:10.793Z,26.21
2024-03-01T02:08:42.712Z,26.23
2024-03-01T02:11:12.597Z,26.23
2024-03-01T02:13:41.662Z,26.27
2024-03-01T02:16:10.651Z,26.32
2024-03-01T02:18:39.846Z,26.37
2024-03-01T02:21:12.800Z,26.40
2024-03-01T02:23:41.839Z,26.45
2024-03-01T02:26:10.904Z,26.53
2024-03-01T02:28:46.809Z,26.58
2024-03-01T02:31:16.970Z,26.64
2024-03-01T02:33:45.901Z,26.67
2024-03-01T02:36:14.855Z,26.70
2024-03-01T02:38:44.189Z,26.75
2024-03-01T02:41:13.058Z,26.78
2024-03-01T02:43:42.005Z,26.82
2024-03-01T02:46:11.052Z,26.87
2024-03-01T02:48:40.060Z,26.94
2024-03-01T02:51:08.987Z,26.99
2024-03-01T02:53:38.260Z,27.07
2024-03-01T02:56:07.419Z,27.14
2024-03-01T02:58:36.576Z,27.20
2024-03-01T03:01:06.524Z,27.30
2024-03-01T03:03:35.364Z,27.37
2024-03-01T03:06:04.245Z,27.49
2024-03-01T03:08:33.066Z,27.60
2024-03-01T03:11:01.966Z,27.71
2024-03-01T03:13:31.098Z,27.81
2024-03-01T03:16:00.086Z,27.92
2024-03-01T03:18:28.926Z,28.00
2024-03-01T03:20:57.835Z,28.06
2024-03-01T03:23:27.063Z,28.09
2024-03-01T03:25:56.079Z,28.14
2024-03-01T03:28:25.254Z,28.22
2024-03-01T03:30:54.211Z,28.28
2024-03-01T03:33:23.296Z,28.39
2024-03-01T03:35:52.257Z,28.49
2024-03-01T03:38:21.115Z,28.55
2024-03-01T03:40:49.898Z,28.59
2024-03-01T03:43:18.974Z,28.65
2024-03-01T03:45:48.234Z,28.74
2024-03-01T03:48:17.171Z,28.80
2024-03-01T03:50:46.287Z,28.88
2024-03-01T03:53:15.215Z,28.93
2024-03-01T03:55:44.212Z,28.96
2024-03-01T03:58:13.222Z,29.00
2024-03-01T04:00:42.137Z,29.03
2024-03-01T04:03:10.963Z,29.06
2024-03-01T04:05:39.990Z,29.07
2024-03-01T04:08:09.032Z,29.09
2024-03-01T04:10:37.962Z,29.12
2024-03-01T04:13:08.451Z,29.11
2024-03-01T04:15:39.728Z,29.20
2024-03-01T04:18:12.835Z,29.26
2024-03-01T04:20:41.923Z,29.31
2024-03-01T04:23:10.932Z,29.34
2024-03-01T04:25:42.494Z,29.38
2024-03-01T04:28:11.437Z,29.39
2024-03-01T04:30:40.759Z,29.39
2024-03-01T04:33:09.655Z,29.40
2024-03-01T04:35:38.519Z,29.46
2024-03-01T04:38:08.233Z,29.57
2024-03-01T04:40:38.425Z,29.63
2024-03-01T04:43:11.072Z,29.67
2024-03-01T04:45:40.861Z,29.70
2024-03-01T04:48:10.464Z,29.69
2024-03-01T04:50:40.582Z,29.71
2024-03-01T04:53:09.817Z,29.77
2024-03-01T04:55:38.901Z,29.80
2024-03-01T04:58:07.775Z,29.85
2024-03-01T05:00:37.463Z,29.91
2024-03-01T05:03:09.289Z,29.95
2024-03-01T05:05:38.259Z,30.03
2024-03-01T05:08:09.640Z,30.11
2024-03-01T05:10:38.729Z,30.22
2024-03-01T05:13:08.482Z,30.31
2024-03-01T05:15:37.356Z,30.36
2024-03-01T05:18:08.151Z,30.43
2024-03-01T05:20:37.175Z,30.50
2024-03-01T05:23:06.309Z,30.57
2024-03-01T05:25:35.211Z,30.63
2024-03-01T05:28:04.835Z,30.69
2024-03-01T05:30:47.371Z,30.74
2024-03-01T05:33:21.208Z,30.77
2024-03-01T05:35:50.591Z,30.82
2024-03-01T05:38:19.578Z,30.85
2024-03-01T05:40:52.546Z,30.90
2024-03-01T05:43:25.116Z,30.93
2024-03-01T05:45:54.361Z,31.00
2024-03-01T05:48:23.511Z,31.05
2024-03-01T05:50:52.598Z,31.06
2024-03-01T05:53:21.746Z,31.10
2024-03-01T05:55:50.883Z,31.11
2024-03-01T05:58:21.534Z,31.19
2024-03-01T06:00:50.728Z,31.22
2024-03-01T06:03:19.913Z,31.25
2024-03-01T06:05:48.817Z,31.21
2024-03-01T06:08:17.841Z,31.20
2024-03-01T06:10:47.089Z,31.21
2024-03-01T06:13:16.138Z,31.23
2024-03-01T06:15:45.193Z,31.22
2024-03-01T06:18:14.172Z,31.26
2024-03-01T06:20:43.080Z,31.32
2024-03-01T06:23:12.082Z,31.36
2024-03-01T06:25:41.192Z,31.40
2024-03-01T06:28:10.191Z,31.43
2024-03-01T06:30:41.771Z,31.43
2024-03-01T06:33:11.264Z,31.44
2024-03-01T06:35:40.351Z,31.43
2024-03-01T06:38:09.294Z,31.47
2024-03-01T06:40:38.367Z,31.48
2024-03-01T06:43:07.314Z,31.52
2024-03-01T06:45:36.370Z,31.54
2024-03-01T06:48:05.633Z,31.56
2024-03-01T06:50:37.662Z,31.56
2024-03-01T06:53:06.729Z,31.59
2024-03-01T06:55:35.601Z,31.60
2024-03-01T06:58:04.810Z,31.59
2024-03-01T07:00:34.803Z,31.60
2024-03-01T07:03:05.428Z,31.65
2024-03-01T07:05:34.282Z,31.65
2024-03-01T07:08:03.478Z,31.65
2024-03-01T07:10:33.759Z,31.65
2024-03-01T07:13:02.872Z,31.70
2024-03-01T07:15:32.868Z,31.70
2024-03-01T07:18:02.674Z,31.67
2024-03-01T07:20:31.578Z,31.67
2024-03-01T07:23:00.550Z,31.66
2024-03-01T07:25:29.364Z,31.67
2024-03-01T07:27:58.471Z,31.68
2024-03-01T07:30:27.505Z,31.68
2024-03-01T07:32:56.492Z,31.73
2024-03-01T07:35:25.691Z,31.71
2024-03-01T07:37:55.200Z,31.70
2024-03-01T07:40:24.705Z,31.74
2024-03-01T07:42:53.763Z,31.74
2024-03-01T07:45:23.133Z,31.74
2024-03-01T07:47:52.164Z,31.66
2024-03-01T07:50:22.536Z,31.60
2024-03-01T07:52:51.746Z,31.56
2024-03-01T07:55:20.678Z,31.52
2024-03-01T07:57:50.909Z,31.47
2024-03-01T08:00:20.427Z,31.43
2024-03-01T08:03:03.352Z,31.42
2024-03-01T08:05:32.417Z,31.44
2024-03-01T08:08:01.372Z,31.40
2024-03-01T08:10:37.467Z,31.36
2024-03-01T08:13:06.964Z,31.34
2024-03-01T08:15:37.640Z,31.32
2024-03-01T08:18:18.363Z,31.29
2024-03-01T08:20:59.388Z,31.25
2024-03-01T08:23:30.321Z,31.25
2024-03-01T08:26:00.373Z,31.25
2024-03-01T08:28:34.065Z,31.24
2024-03-01T08:31:12.125Z,31.25
2024-03-01T08:33:42.761Z,31.27
2024-03-01T08:36:12.144Z,31.32
2024-03-01T08:38:44.740Z,31.34
2024-03-01T08:41:15.082Z,31.36
2024-03-01T08:43:45.708Z,31.38
2024-03-01T08:46:33.426Z,31.44
2024-03-01T08:49:24.086Z,31.47
2024-03-01T08:51:53.146Z,31.49
2024-03-01T08:54:25.307Z,31.51
2024-03-01T08:57:08.007Z,31.49
2024-03-01T08:59:50.857Z,31.50
2024-03-01T09:02:48.611Z,31.50
2024-03-01T09:05:18.438Z,31.48
2024-03-01T09:07:50.376Z,31.51
2024-03-01T09:10:39.493Z,31.50
2024-03-01T09:13:11.491Z,31.49
2024-03-01T09:15:45.376Z,31.48
2024-03-01T09:18:45.474Z,31.47
2024-03-01T09:21:33.056Z,31.45
2024-03-01T09:24:02.246Z,31.40
2024-03-01T09:26:31.942Z,31.36
2024-03-01T09:29:05.533Z,31.32
2024-03-01T09:31:36.220Z,31.30
2024-03-01T09:34:13.096Z,31.26
2024-03-01T09:36:42.427Z,31.22
2024-03-01T09:39:14.574Z,31.18
2024-03-01T09:41:52.718Z,31.12
2024-03-01T09:44:28.458Z,31.06
2024-03-01T09:47:03.134Z,31.01
2024-03-01T09:50:00.325Z,30.95
2024-03-01T09:52:43.455Z,30.90
2024-03-01T09:55:31.519Z,30.84
2024-03-01T09:58:20.427Z,30.76
2024-03-01T10:01:02.485Z,30.72
2024-03-01T10:03:43.123Z,30.65
2024-03-01T10:06:49.856Z,30.60
2024-03-01T10:09:50.614Z,30.52
2024-03-01T10:12:40.668Z,30.44
2024-03-01T10:15:40.211Z,30.37
2024-03-01T10:18:21.228Z,30.32
2024-03-01T10:21:29.980Z,30.27
2024-03-01T10:24:37.578Z,30.25
2024-03-01T10:27:29.028Z,30.22
2024-03-01T10:30:12.747Z,30.19
2024-03-01T10:33:12.792Z,30.17
2024-03-01T10:36:09.644Z,30.14
2024-03-01T10:39:12.438Z,30.11
2024-03-01T10:42:03.616Z,30.07
2024-03-01T10:44:46.271Z,30.04
2024-03-01T10:47:25.406Z,29.99
2024-03-01T10:50:15.445Z,29.96
2024-03-01T10:53:26.856Z,29.89
2024-03-01T10:56:11.199Z,29.83
2024-03-01T10:59:00.105Z,29.78
2024-03-01T11:01:49.231Z,29.74
2024-03-01T11:04:46.827Z,29.70
2024-03-01T11:07:40.973Z,29.64
2024-03-01T11:10:18.640Z,29.59
2024-03-01T11:12:50.001Z,29.53
2024-03-01T11:15:22.401Z,29.48
2024-03-01T11:17:53.501Z,29.43
2024-03-01T11:20:31.816Z,29.39
2024-03-01T11:23:32.239Z,29.33
2024-03-01T11:26:09.953Z,29.32
2024-03-01T11:28:44.705Z,29.28
2024-03-01T11:31:33.185Z,29.23
2024-03-01T11:34:08.151Z,29.15
2024-03-01T11:36:54.946Z,29.12
2024-03-01T11:40:06.474Z,29.08
2024-03-01T11:42:47.165Z,29.04
2024-03-01T11:45:26.818Z,28.97
2024-03-01T11:48:35.212Z,28.91
2024-03-01T11:51:43.796Z,28.86
2024-03-01T11:54:44.433Z,28.80
2024-03-01T11:57:38.196Z,28.74
2024-03-01T12:00:26.134Z,28.70
2024-03-01T12:03:24.630Z,28.66
2024-03-01T12:06:09.796Z,28.63
2024-03-01T12:08:56.692Z,28.61
2024-03-01T12:11:43.626Z,28.58
2024-03-01T12:14:18.069Z,28.54
2024-03-01T12:17:06.356Z,28.49
2024-03-01T12:19:51.306Z,28.46
2024-03-01T12:22:38.159Z,28.45
2024-03-01T12:25:08.085Z,28.42
2024-03-01T12:27:58.000Z,28.41
2024-03-01T12:30:32.532Z,28.38
2024-03-01T12:33:15.275Z,28.36
2024-03-01T12:35:58.500Z,28.33
2024-03-01T12:38:33.277Z,28.30
2024-03-01T12:41:22.718Z,28.28
2024-03-01T12:44:03.397Z,28.26
2024-03-01T12:46:50.766Z,28.23
2024-03-01T12:49:43.779Z,28.20
2024-03-01T12:52:15.770Z,28.17
2024-03-01T12:55:01.074Z,28.14
2024-03-01T12:57:41.336Z,28.12
2024-03-01T13:00:17.982Z,28.08
2024-03-01T13:03:15.543Z,28.05
2024-03-01T13:05:45.327Z,28.02
2024-03-01T13:08:29.743Z,28.01
2024-03-01T13:11:04.403Z,28.00
2024-03-01T13:13:36.365Z,27.98
2024-03-01T13:16:12.675Z,27.98
2024-03-01T13:19:03.710Z,27.95
2024-03-01T13:21:42.424Z,27.93
2024-03-01T13:24:33.109Z,27.89
2024-03-01T13:27:30.849Z,27.88
2024-03-01T13:30:07.168Z,27.81
2024-03-01T13:33:04.856Z,27.81
2024-03-01T13:35:35.715Z,27.78
2024-03-01T13:38:12.149Z,27.76
2024-03-01T13:40:49.558Z,27.75
2024-03-01T13:43:46.239Z,27.75
2024-03-01T13:46:26.064Z,27.75
2024-03-01T13:48:55.503Z,27.74
2024-03-01T13:51:27.290Z,27.73
2024-03-01T13:53:57.980Z,27.70
2024-03-01T13:56:28.263Z,27.69
2024-03-01T13:58:57.817Z,27.69
2024-03-01T14:01:27.972Z,27.68
2024-03-01T14:03:59.125Z,27.67
2024-03-01T14:06:28.277Z,27.67
2024-03-01T14:09:13.974Z,27.67
2024-03-01T14:11:43.998Z,27.66
2024-03-01T14:14:13.958Z,27.65
2024-03-01T14:16:49.386Z,27.64
2024-03-01T14:19:19.608Z,27.63
2024-03-01T14:21:48.621Z,27.64
2024-03-01T14:24:17.907Z,27.63
2024-03-01T14:26:47.542Z,27.62
2024-03-01T14:29:16.800Z,27.63
2024-03-01T14:32:16.569Z,27.63
2024-03-01T14:34:45.609Z,27.63
2024-03-01T14:37:25.785Z,27.61
2024-03-01T14:39:54.775Z,27.60
2024-03-01T14:42:25.014Z,27.62
2024-03-01T14:44:59.208Z,27.60
2024-03-01T14:47:30.382Z,27.62
2024-03-01T14:50:05.942Z,27.63
2024-03-01T14:52:34.917Z,27.63
2024-03-01T14:55:05.331Z,27.63
2024-03-01T14:57:34.850Z,27.63
2024-03-01T15:00:03.841Z,27.60
2024-03-01T15:02:33.036Z,27.61
2024-03-01T15:05:02.113Z,27.58
2024-03-01T15:07:31.049Z,27.57
2024-03-01T15:10:05.027Z,27.55
2024-03-01T15:12:34.149Z,27.51
2024-03-01T15:15:12.734Z,27.48
2024-03-01T15:17:42.194Z,27.44
2024-03-01T15:20:12.476Z,27.39
2024-03-01T15:22:42.848Z,27.37
2024-03-01T15:25:13.398Z,27.36
2024-03-01T15:27:42.321Z,27.33
2024-03-01T15:30:14.005Z,27.31
2024-03-01T15:32:42.979Z,27.31
2024-03-01T15:35:11.934Z,27.30
2024-03-01T15:37:41.513Z,27.30
2024-03-01T15:40:14.895Z,27.29
2024-03-01T15:42:44.224Z,27.29
2024-03-01T15:45:14.914Z,27.27
2024-03-01T15:47:44.208Z,27.27
2024-03-01T15:50:14.849Z,27.28
2024-03-01T15:52:45.412Z,27.25
2024-03-01T15:55:14.302Z,27.23
2024-03-01T15:57:44.506Z,27.24
2024-03-01T16:00:18.307Z,27.20
2024-03-01T16:02:48.122Z,27.19
2024-03-01T16:05:20.103Z,27.17
2024-03-01T16:07:53.568Z,27.13
2024-03-01T16:10:27.104Z,27.10
2024-03-01T16:13:03.575Z,27.07
2024-03-01T16:15:32.636Z,27.04
2024-03-01T16:18:04.746Z,27.01
2024-03-01T16:20:34.298Z,26.98
2024-03-01T16:23:06.457Z,26.92
2024-03-01T16:25:35.924Z,26.92
2024-03-01T16:28:06.827Z,26.87
2024-03-01T16:30:37.237Z,26.86
2024-03-01T16:33:06.964Z,26.81
2024-03-01T16:35:48.580Z,26.79
2024-03-01T16:38:17.481Z,26.72
2024-03-01T16:40:46.346Z,26.73
2024-03-01T16:43:47.755Z,26.69
2024-03-01T16:46:37.893Z,26.65
2024-03-01T16:49:14.751Z,26.61
2024-03-01T16:51:50.126Z,26.58
2024-03-01T16:54:42.204Z,26.53
2024-03-01T16:57:13.608Z,26.49
2024-03-01T16:59:43.169Z,26.46
2024-03-01T17:02:29.266Z,26.40
2024-03-01T17:05:00.290Z,26.36
2024-03-01T17:07:50.392Z,26.35
2024-03-01T17:10:38.182Z,26.31
2024-03-01T17:13:07.592Z,26.27
2024-03-01T17:15:36.571Z,26.22
2024-03-01T17:18:13.475Z,26.19
2024-03-01T17:20:45.103Z,26.13
2024-03-01T17:23:14.108Z,26.12
2024-03-01T17:25:43.913Z,26.06
2024-03-01T17:28:13.308Z,26.04
2024-03-01T17:30:42.203Z,26.00
2024-03-01T17:33:13.799Z,25.96
2024-03-01T17:35:42.945Z,25.93
2024-03-01T17:38:12.362Z,25.90
2024-03-01T17:40:41.360Z,25.84
2024-03-01T17:43:11.616Z,25.80
2024-03-01T17:45:40.666Z,25.76
2024-03-01T17:48:09.853Z,25.72
2024-03-01T17:50:38.880Z,25.66
2024-03-01T17:53:09.758Z,25.64
2024-03-01T17:55:39.758Z,25.60
2024-03-01T17:58:08.962Z,25.55
2024-03-01T18:00:38.024Z,25.53
2024-03-01T18:03:07.910Z,25.44
2024-03-01T18:05:37.057Z,25.41
2024-03-01T18:08:06.776Z,25.37
2024-03-01T18:10:35.762Z,25.34
2024-03-01T18:13:04.990Z,25.29
2024-03-01T18:15:34.010Z,25.27
2024-03-01T18:18:03.276Z,25.21
2024-03-01T18:20:32.376Z,25.18
2024-03-01T18:23:01.230Z,25.15
2024-03-01T18:25:30.061Z,25.13
2024-03-01T18:27:58.984Z,25.10
2024-03-01T18:30:27.930Z,25.07
2024-03-01T18:32:56.887Z,25.04
2024-03-01T18:35:27.438Z,25.01
2024-03-01T18:37:58.225Z,24.98
2024-03-01T18:40:27.103Z,24.92
2024-03-01T18:42:56.037Z,24.91
2024-03-01T18:45:25.005Z,24.88
2024-03-01T18:47:55.422Z,24.84
2024-03-01T18:50:25.119Z,24.82
2024-03-01T18:52:54.035Z,24.80
2024-03-01T18:55:23.397Z,24.76
2024-03-01T18:57:53.073Z,24.75
2024-03-01T19:00:25.678Z,24.70
2024-03-01T19:02:55.620Z,24.68
2024-03-01T19:05:24.596Z,24.63
2024-03-01T19:07:53.438Z,24.63
2024-03-01T19:10:22.865Z,24.57
2024-03-01T19:12:51.901Z,24.57
2024-03-01T19:15:20.724Z,24.54
2024-03-01T19:17:49.704Z,24.52
2024-03-01T19:20:18.661Z,24.51
2024-03-01T19:22:47.841Z,24.49
2024-03-01T19:25:16.963Z,24.50
2024-03-01T19:27:47.257Z,24.49
2024-03-01T19:30:18.313Z,24.46
2024-03-01T19:32:48.909Z,24.46
2024-03-01T19:35:17.973Z,24.45
2024-03-01T19:37:46.896Z,24.45
2024-03-01T19:40:16.769Z,24.43
2024-03-01T19:42:46.575Z,24.42
2024-03-01T19:45:15.386Z,24.40
2024-03-01T19:47:46.268Z,24.35
2024-03-01T19:50:15.389Z,24.37
2024-03-01T19:52:44.576Z,24.34
2024-03-01T19:55:13.568Z,24.31
2024-03-01T19:57:42.452Z,24.29
2024-03-01T20:00:11.660Z,24.27
2024-03-01T20:02:40.638Z,24.26
2024-03-01T20:05:09.889Z,24.26
2024-03-01T20:07:38.974Z,24.23
2024-03-01T20:10:08.485Z,24.22
2024-03-01T20:12:38.122Z,24.21
2024-03-01T20:15:08.106Z,24.22
2024-03-01T20:17:37.170Z,24.21
2024-03-01T20:20:06.309Z,24.22
2024-03-01T20:22:35.647Z,24.21
2024-03-01T20:25:05.389Z,24.19
2024-03-01T20:27:35.138Z,24.19
2024-03-01T20:30:04.123Z,24.16
2024-03-01T20:32:33.124Z,24.15
2024-03-01T20:35:02.056Z,24.15
2024-03-01T20:37:31.097Z,24.14
2024-03-01T20:40:00.029Z,24.12
2024-03-01T20:42:29.077Z,24.09
2024-03-01T20:44:57.939Z,24.07
2024-03-01T20:47:27.181Z,24.02
2024-03-01T20:49:56.142Z,24.01
2024-03-01T20:52:25.695Z,24.00
2024-03-01T20:54:54.749Z,23.98
2024-03-01T20:57:25.926Z,23.95
2024-03-01T20:59:56.266Z,23.94
2024-03-01T21:02:25.354Z,23.91
2024-03-01T21:04:54.699Z,23.90
2024-03-01T21:07:23.694Z,23.88
2024-03-01T21:09:52.707Z,23.85
2024-03-01T21:12:21.834Z,23.85
2024-03-01T21:14:50.718Z,23.83
2024-03-01T21:17:19.816Z,23.82
2024-03-01T21:19:48.847Z,23.80
2024-03-01T21:24:52.272Z,23.76
2024-03-01T21:27:21.169Z,23.71
2024-03-01T21:29:50.228Z,23.71
2024-03-01T21:32:24.857Z,23.69
2024-03-01T21:34:54.319Z,23.66
2024-03-01T21:37:24.333Z,23.62
2024-03-01T21:39:53.152Z,23.61
2024-03-01T21:42:22.059Z,23.61
2024-03-01T21:44:51.346Z,23.56
2024-03-01T21:47:20.886Z,23.57
2024-03-01T21:49:50.000Z,23.56
2024-03-01T21:52:19.125Z,23.55
2024-03-01T21:54:49.248Z,23.58
2024-03-01T21:57:18.413Z,23.57
2024-03-01T21:59:47.790Z,23.58
2024-03-01T22:02:16.932Z,23.58
2024-03-01T22:04:45.913Z,23.57
2024-03-01T22:07:14.969Z,23.56
2024-03-01T22:09:43.836Z,23.56
2024-03-01T22:12:12.889Z,23.55
2024-03-01T22:14:41.852Z,23.55
2024-03-01T22:17:12.662Z,23.55
2024-03-01T22:19:41.664Z,23.53
2024-03-01T22:22:10.780Z,23.51
2024-03-01T22:24:41.897Z,23.52
2024-03-01T22:27:10.944Z,23.50
2024-03-01T22:29:40.108Z,23.52
2024-03-01T22:32:09.057Z,23.52
2024-03-01T22:34:38.089Z,23.51
2024-03-01T22:37:07.021Z,23.49
2024-03-01T22:39:36.301Z,23.48
2024-03-01T22:42:05.453Z,23.47
2024-03-01T22:44:34.621Z,23.44
2024-03-01T22:47:03.830Z,23.42
2024-03-01T22:49:32.694Z,23.42
2024-03-01T22:52:01.896Z,23.41
2024-03-01T22:54:31.138Z,23.38
2024-03-01T22:57:00.188Z,23.37
2024-03-01T23:00:28.745Z,23.35
2024-03-01T23:02:58.570Z,23.33
2024-03-01T23:06:00.706Z,23.30
2024-03-01T23:08:36.086Z,23.30
2024-03-01T23:11:09.823Z,23.28
2024-03-01T23:13:43.412Z,23.25
2024-03-01T23:16:12.495Z,23.23
2024-03-01T23:18:41.402Z,23.22
2024-03-01T23:21:11.185Z,23.21
2024-03-01T23:23:40.622Z,23.20
2024-03-01T23:26:09.665Z,23.19
2024-03-01T23:28:38.972Z,23.18
2024-03-01T23:31:08.184Z,23.17
2024-03-01T23:33:37.185Z,23.16
2024-03-01T23:36:12.650Z,23.16
2024-03-01T23:38:41.647Z,23.14
2024-03-01T23:41:11.380Z,23.13
2024-03-01T23:43:40.631Z,23.11
2024-03-01T23:46:09.424Z,23.10
2024-03-01T23:48:40.866Z,23.10
2024-03-01T23:51:11.252Z,23.08
2024-03-01T23:53:40.253Z,23.07
2024-03-01T23:56:09.261Z,23.08
2024-03-01T23:58:42.435Z,23.07
